sensor_id;sensor_type;location;lat;lon;timestamp;pressure;altitude;pressure_sealevel;temperature;humidity
76024;BME280;64719;52.124;6.226;2023-03-30T00:00:07;100674.53;;;11.03;89.22
76024;BME280;64719;52.124;6.226;2023-03-30T00:02:43;100669.22;;;10.97;89.50
76024;BME280;64719;52.124;6.226;2023-03-30T00:05:10;100668.22;;;11.54;87.91
76024;BME280;64719;52.124;6.226;2023-03-30T00:07:37;100670.03;;;11.49;86.67
76024;BME280;64719;52.124;6.226;2023-03-30T00:10:08;100664.00;;;11.47;86.62
76024;BME280;64719;52.124;6.226;2023-03-30T00:12:35;100668.59;;;11.58;86.25
76024;BME280;64719;52.124;6.226;2023-03-30T00:15:03;100651.88;;;11.77;85.29
76024;BME280;64719;52.124;6.226;2023-03-30T00:17:30;100661.00;;;11.71;85.18
76024;BME280;64719;52.124;6.226;2023-03-30T00:19:57;100669.03;;;11.66;85.39
76024;BME280;64719;52.124;6.226;2023-03-30T00:22:26;100674.09;;;11.74;84.95
76024;BME280;64719;52.124;6.226;2023-03-30T00:24:53;100668.31;;;11.71;85.02
76024;BME280;64719;52.124;6.226;2023-03-30T00:27:21;100666.88;;;11.96;83.76
76024;BME280;64719;52.124;6.226;2023-03-30T00:29:48;100661.13;;;11.93;83.58
76024;BME280;64719;52.124;6.226;2023-03-30T00:32:14;100649.28;;;11.99;83.37
76024;BME280;64719;52.124;6.226;2023-03-30T00:34:41;100648.84;;;12.07;81.98
76024;BME280;64719;52.124;6.226;2023-03-30T00:37:08;100632.03;;;11.93;82.63
76024;BME280;64719;52.124;6.226;2023-03-30T00:39:36;100609.78;;;11.96;82.49
76024;BME280;64719;52.124;6.226;2023-03-30T00:42:03;100601.81;;;11.90;82.82
76024;BME280;64719;52.124;6.226;2023-03-30T00:47:43;100613.75;;;12.05;82.44
76024;BME280;64719;52.124;6.226;2023-03-30T00:50:12;100617.38;;;12.27;81.29
76024;BME280;64719;52.124;6.226;2023-03-30T00:52:40;100619.09;;;12.33;80.89
76024;BME280;64719;52.124;6.226;2023-03-30T00:55:08;100614.91;;;12.26;80.89
76024;BME280;64719;52.124;6.226;2023-03-30T00:57:37;100613.00;;;12.26;80.89
76024;BME280;64719;52.124;6.226;2023-03-30T01:00:07;100609.47;;;12.26;80.55
76024;BME280;64719;52.124;6.226;2023-03-30T01:02:39;100611.75;;;12.17;81.32
76024;BME280;64719;52.124;6.226;2023-03-30T01:05:09;100624.31;;;12.18;80.63
76024;BME280;64719;52.124;6.226;2023-03-30T01:07:36;100624.22;;;12.13;81.10
76024;BME280;64719;52.124;6.226;2023-03-30T01:10:04;100623.13;;;12.14;80.99
76024;BME280;64719;52.124;6.226;2023-03-30T01:12:32;100613.69;;;12.17;80.50
76024;BME280;64719;52.124;6.226;2023-03-30T01:14:59;100619.41;;;12.20;80.35
76024;BME280;64719;52.124;6.226;2023-03-30T01:17:31;100614.31;;;12.07;80.58
76024;BME280;64719;52.124;6.226;2023-03-30T01:20:42;100602.03;;;11.88;81.66
76024;BME280;64719;52.124;6.226;2023-03-30T01:26:28;100591.09;;;12.00;81.74
76024;BME280;64719;52.124;6.226;2023-03-30T01:29:03;100574.63;;;12.06;81.05
76024;BME280;64719;52.124;6.226;2023-03-30T01:31:47;100562.56;;;12.02;81.12
76024;BME280;64719;52.124;6.226;2023-03-30T01:34:30;100563.38;;;12.03;81.29
76024;BME280;64719;52.124;6.226;2023-03-30T01:40:12;100554.91;;;11.99;81.52
76024;BME280;64719;52.124;6.226;2023-03-30T01:42:47;100574.66;;;11.95;81.63
76024;BME280;64719;52.124;6.226;2023-03-30T01:45:25;100573.53;;;12.07;81.21
76024;BME280;64719;52.124;6.226;2023-03-30T01:47:55;100580.09;;;11.95;81.66
76024;BME280;64719;52.124;6.226;2023-03-30T01:50:25;100593.06;;;12.04;81.64
76024;BME280;64719;52.124;6.226;2023-03-30T01:52:57;100582.78;;;12.06;80.93
76024;BME280;64719;52.124;6.226;2023-03-30T01:55:31;100584.75;;;12.11;80.83
76024;BME280;64719;52.124;6.226;2023-03-30T01:58:01;100593.91;;;12.05;81.29
76024;BME280;64719;52.124;6.226;2023-03-30T02:00:29;100583.31;;;12.08;81.13
76024;BME280;64719;52.124;6.226;2023-03-30T02:02:59;100591.47;;;12.08;81.41
76024;BME280;64719;52.124;6.226;2023-03-30T02:05:27;100579.81;;;12.08;80.99
76024;BME280;64719;52.124;6.226;2023-03-30T02:07:59;100588.22;;;12.06;81.18
76024;BME280;64719;52.124;6.226;2023-03-30T02:10:32;100580.53;;;12.03;81.43
76024;BME280;64719;52.124;6.226;2023-03-30T02:13:01;100579.94;;;12.18;80.48
76024;BME280;64719;52.124;6.226;2023-03-30T02:15:33;100583.50;;;12.18;80.43
76024;BME280;64719;52.124;6.226;2023-03-30T02:18:01;100568.69;;;12.09;80.65
76024;BME280;64719;52.124;6.226;2023-03-30T02:20:29;100552.50;;;12.03;80.61
76024;BME280;64719;52.124;6.226;2023-03-30T02:22:57;100546.00;;;11.87;81.24
76024;BME280;64719;52.124;6.226;2023-03-30T02:25:23;100533.50;;;11.70;81.94
76024;BME280;64719;52.124;6.226;2023-03-30T02:27:51;100528.66;;;11.60;82.61
76024;BME280;64719;52.124;6.226;2023-03-30T02:30:18;100525.78;;;11.50;83.17
76024;BME280;64719;52.124;6.226;2023-03-30T02:32:47;100521.34;;;11.44;83.36
76024;BME280;64719;52.124;6.226;2023-03-30T02:35:49;100529.34;;;11.23;84.08
76024;BME280;64719;52.124;6.226;2023-03-30T02:38:42;100540.69;;;11.20;84.99
76024;BME280;64719;52.124;6.226;2023-03-30T02:41:22;100554.41;;;11.13;84.98
76024;BME280;64719;52.124;6.226;2023-03-30T02:44:00;100549.19;;;11.23;84.67
76024;BME280;64719;52.124;6.226;2023-03-30T02:46:45;100552.97;;;11.22;84.78
76024;BME280;64719;52.124;6.226;2023-03-30T02:49:20;100550.38;;;11.44;83.59
76024;BME280;64719;52.124;6.226;2023-03-30T02:51:54;100538.56;;;11.22;83.78
76024;BME280;64719;52.124;6.226;2023-03-30T02:54:31;100539.94;;;11.07;83.69
76024;BME280;64719;52.124;6.226;2023-03-30T02:57:04;100540.16;;;10.78;84.94
76024;BME280;64719;52.124;6.226;2023-03-30T02:59:36;100539.25;;;10.61;86.15
76024;BME280;64719;52.124;6.226;2023-03-30T03:02:11;100555.66;;;10.66;86.12
76024;BME280;64719;52.124;6.226;2023-03-30T03:04:39;100561.78;;;10.61;86.36
76024;BME280;64719;52.124;6.226;2023-03-30T03:07:08;100560.50;;;11.03;85.62
76024;BME280;64719;52.124;6.226;2023-03-30T03:09:35;100563.34;;;11.25;83.73
76024;BME280;64719;52.124;6.226;2023-03-30T03:12:02;100553.53;;;11.24;83.80
76024;BME280;64719;52.124;6.226;2023-03-30T03:14:29;100564.28;;;11.31;83.60
76024;BME280;64719;52.124;6.226;2023-03-30T03:16:57;100566.44;;;11.45;83.24
76024;BME280;64719;52.124;6.226;2023-03-30T03:19:23;100565.75;;;11.66;82.25
76024;BME280;64719;52.124;6.226;2023-03-30T03:21:50;100572.13;;;11.72;82.30
76024;BME280;64719;52.124;6.226;2023-03-30T03:24:16;100568.66;;;11.76;82.26
76024;BME280;64719;52.124;6.226;2023-03-30T03:26:43;100562.75;;;11.79;81.71
76024;BME280;64719;52.124;6.226;2023-03-30T03:29:10;100563.78;;;11.95;80.95
76024;BME280;64719;52.124;6.226;2023-03-30T03:31:36;100561.56;;;11.92;81.12
76024;BME280;64719;52.124;6.226;2023-03-30T03:34:04;100561.50;;;11.87;81.62
76024;BME280;64719;52.124;6.226;2023-03-30T03:36:31;100543.88;;;11.89;81.59
76024;BME280;64719;52.124;6.226;2023-03-30T03:38:57;100546.50;;;11.84;81.74
76024;BME280;64719;52.124;6.226;2023-03-30T03:41:24;100539.56;;;11.93;81.64
76024;BME280;64719;52.124;6.226;2023-03-30T03:43:51;100543.97;;;11.94;81.45
76024;BME280;64719;52.124;6.226;2023-03-30T03:46:18;100541.75;;;11.91;81.69
76024;BME280;64719;52.124;6.226;2023-03-30T03:48:44;100523.34;;;11.82;81.75
76024;BME280;64719;52.124;6.226;2023-03-30T03:51:13;100505.16;;;11.82;82.03
76024;BME280;64719;52.124;6.226;2023-03-30T03:53:39;100508.53;;;11.73;82.30
76024;BME280;64719;52.124;6.226;2023-03-30T03:56:06;100530.13;;;11.63;83.08
76024;BME280;64719;52.124;6.226;2023-03-30T03:58:33;100522.66;;;11.58;83.11
76024;BME280;64719;52.124;6.226;2023-03-30T04:01:01;100516.66;;;11.56;83.28
76024;BME280;64719;52.124;6.226;2023-03-30T04:03:27;100520.34;;;11.50;83.73
76024;BME280;64719;52.124;6.226;2023-03-30T04:05:57;100530.69;;;11.37;84.05
76024;BME280;64719;52.124;6.226;2023-03-30T04:08:26;100531.50;;;11.65;83.09
76024;BME280;64719;52.124;6.226;2023-03-30T04:10:53;100535.38;;;11.69;82.87
76024;BME280;64719;52.124;6.226;2023-03-30T04:13:20;100521.28;;;11.72;82.65
76024;BME280;64719;52.124;6.226;2023-03-30T04:15:46;100526.56;;;11.79;82.13
76024;BME280;64719;52.124;6.226;2023-03-30T04:18:13;100527.56;;;11.73;82.41
76024;BME280;64719;52.124;6.226;2023-03-30T04:20:39;100529.78;;;11.76;82.70
76024;BME280;64719;52.124;6.226;2023-03-30T04:23:06;100528.16;;;11.75;83.05
76024;BME280;64719;52.124;6.226;2023-03-30T04:25:35;100529.38;;;11.67;82.85
76024;BME280;64719;52.124;6.226;2023-03-30T04:28:04;100523.69;;;11.41;83.99
76024;BME280;64719;52.124;6.226;2023-03-30T04:30:30;100514.97;;;11.39;84.58
76024;BME280;64719;52.124;6.226;2023-03-30T04:32:57;100507.66;;;11.56;84.14
76024;BME280;64719;52.124;6.226;2023-03-30T04:35:29;100501.97;;;11.57;83.93
76024;BME280;64719;52.124;6.226;2023-03-30T04:37:56;100502.75;;;11.69;84.00
76024;BME280;64719;52.124;6.226;2023-03-30T04:40:24;100494.94;;;11.73;84.15
76024;BME280;64719;52.124;6.226;2023-03-30T04:42:52;100506.81;;;11.67;84.52
76024;BME280;64719;52.124;6.226;2023-03-30T04:45:18;100504.25;;;11.77;84.43
76024;BME280;64719;52.124;6.226;2023-03-30T04:47:45;100504.22;;;11.93;83.76
76024;BME280;64719;52.124;6.226;2023-03-30T04:50:12;100501.97;;;12.07;83.35
76024;BME280;64719;52.124;6.226;2023-03-30T04:52:39;100502.94;;;12.17;83.43
76024;BME280;64719;52.124;6.226;2023-03-30T04:55:06;100499.69;;;12.15;83.14
76024;BME280;64719;52.124;6.226;2023-03-30T04:57:34;100506.25;;;12.19;83.35
76024;BME280;64719;52.124;6.226;2023-03-30T05:00:03;100501.19;;;12.28;83.30
76024;BME280;64719;52.124;6.226;2023-03-30T05:02:31;100497.03;;;12.42;82.55
76024;BME280;64719;52.124;6.226;2023-03-30T05:04:58;100491.94;;;12.45;82.72
76024;BME280;64719;52.124;6.226;2023-03-30T05:07:24;100498.00;;;12.52;83.23
76024;BME280;64719;52.124;6.226;2023-03-30T05:09:51;100500.28;;;12.60;82.92
76024;BME280;64719;52.124;6.226;2023-03-30T05:12:18;100501.31;;;12.54;83.12
76024;BME280;64719;52.124;6.226;2023-03-30T05:14:44;100499.88;;;12.52;83.00
76024;BME280;64719;52.124;6.226;2023-03-30T05:17:12;100494.66;;;12.45;83.88
76024;BME280;64719;52.124;6.226;2023-03-30T05:19:39;100499.59;;;12.48;83.62
76024;BME280;64719;52.124;6.226;2023-03-30T05:22:05;100500.72;;;12.52;83.79
76024;BME280;64719;52.124;6.226;2023-03-30T05:24:32;100513.44;;;12.47;84.29
76024;BME280;64719;52.124;6.226;2023-03-30T05:26:58;100517.69;;;12.38;85.91
76024;BME280;64719;52.124;6.226;2023-03-30T05:29:26;100519.03;;;12.19;89.62
76024;BME280;64719;52.124;6.226;2023-03-30T05:31:53;100517.00;;;12.09;91.23
76024;BME280;64719;52.124;6.226;2023-03-30T05:34:20;100518.41;;;11.95;91.83
76024;BME280;64719;52.124;6.226;2023-03-30T05:36:47;100516.03;;;11.82;93.04
76024;BME280;64719;52.124;6.226;2023-03-30T05:39:14;100517.28;;;11.75;93.85
76024;BME280;64719;52.124;6.226;2023-03-30T05:41:41;100518.56;;;11.89;93.55
76024;BME280;64719;52.124;6.226;2023-03-30T05:44:07;100509.59;;;11.88;93.44
76024;BME280;64719;52.124;6.226;2023-03-30T05:46:34;100516.34;;;11.86;94.15
76024;BME280;64719;52.124;6.226;2023-03-30T05:49:00;100509.28;;;11.85;94.13
76024;BME280;64719;52.124;6.226;2023-03-30T05:51:28;100502.19;;;11.84;93.97
76024;BME280;64719;52.124;6.226;2023-03-30T05:53:55;100515.09;;;11.77;95.02
76024;BME280;64719;52.124;6.226;2023-03-30T05:56:21;100509.66;;;11.77;94.81
76024;BME280;64719;52.124;6.226;2023-03-30T05:58:49;100504.56;;;11.80;94.93
76024;BME280;64719;52.124;6.226;2023-03-30T06:01:16;100502.69;;;11.81;95.03
76024;BME280;64719;52.124;6.226;2023-03-30T06:03:45;100508.53;;;11.89;94.27
76024;BME280;64719;52.124;6.226;2023-03-30T06:06:11;100513.97;;;11.89;93.82
76024;BME280;64719;52.124;6.226;2023-03-30T06:08:39;100517.44;;;11.85;93.96
76024;BME280;64719;52.124;6.226;2023-03-30T06:11:07;100511.91;;;11.80;94.42
76024;BME280;64719;52.124;6.226;2023-03-30T06:13:33;100502.69;;;11.81;94.43
76024;BME280;64719;52.124;6.226;2023-03-30T06:16:00;100515.09;;;11.93;93.73
76024;BME280;64719;52.124;6.226;2023-03-30T06:18:26;100510.47;;;12.10;92.68
76024;BME280;64719;52.124;6.226;2023-03-30T06:20:53;100513.47;;;11.92;92.99
76024;BME280;64719;52.124;6.226;2023-03-30T06:23:19;100528.13;;;11.91;92.81
76024;BME280;64719;52.124;6.226;2023-03-30T06:25:48;100521.50;;;12.04;92.71
76024;BME280;64719;52.124;6.226;2023-03-30T06:28:17;100528.00;;;12.19;91.84
76024;BME280;64719;52.124;6.226;2023-03-30T06:30:44;100526.75;;;12.27;91.51
76024;BME280;64719;52.124;6.226;2023-03-30T06:33:13;100534.09;;;12.26;92.07
76024;BME280;64719;52.124;6.226;2023-03-30T06:35:43;100534.59;;;12.23;91.82
76024;BME280;64719;52.124;6.226;2023-03-30T06:38:10;100540.03;;;12.23;91.98
76024;BME280;64719;52.124;6.226;2023-03-30T06:40:37;100545.41;;;12.35;91.77
76024;BME280;64719;52.124;6.226;2023-03-30T06:43:05;100537.81;;;12.20;92.32
76024;BME280;64719;52.124;6.226;2023-03-30T06:45:32;100547.06;;;12.03;93.44
76024;BME280;64719;52.124;6.226;2023-03-30T06:47:58;100530.16;;;12.01;93.38
76024;BME280;64719;52.124;6.226;2023-03-30T06:50:25;100551.91;;;12.17;93.18
76024;BME280;64719;52.124;6.226;2023-03-30T06:52:51;100543.00;;;12.22;93.26
76024;BME280;64719;52.124;6.226;2023-03-30T06:55:18;100545.97;;;12.20;92.92
76024;BME280;64719;52.124;6.226;2023-03-30T06:57:45;100548.63;;;12.32;92.95
76024;BME280;64719;52.124;6.226;2023-03-30T07:00:14;100553.56;;;12.35;92.61
76024;BME280;64719;52.124;6.226;2023-03-30T07:02:41;100553.44;;;12.46;91.96
76024;BME280;64719;52.124;6.226;2023-03-30T07:05:08;100548.78;;;12.63;90.66
76024;BME280;64719;52.124;6.226;2023-03-30T07:07:36;100548.97;;;12.78;89.11
76024;BME280;64719;52.124;6.226;2023-03-30T07:10:04;100559.97;;;12.88;88.91
76024;BME280;64719;52.124;6.226;2023-03-30T07:12:34;100568.13;;;12.67;89.44
76024;BME280;64719;52.124;6.226;2023-03-30T07:15:01;100567.69;;;12.53;89.82
76024;BME280;64719;52.124;6.226;2023-03-30T07:17:28;100566.38;;;12.56;90.49
76024;BME280;64719;52.124;6.226;2023-03-30T07:19:55;100567.75;;;12.58;90.42
76024;BME280;64719;52.124;6.226;2023-03-30T07:22:22;100566.53;;;12.49;91.20
76024;BME280;64719;52.124;6.226;2023-03-30T07:24:48;100570.16;;;12.55;90.27
76024;BME280;64719;52.124;6.226;2023-03-30T07:27:15;100579.47;;;12.59;88.94
76024;BME280;64719;52.124;6.226;2023-03-30T07:29:41;100575.41;;;12.61;88.75
76024;BME280;64719;52.124;6.226;2023-03-30T07:32:08;100585.06;;;12.69;87.16
76024;BME280;64719;52.124;6.226;2023-03-30T07:34:36;100589.50;;;12.75;86.44
76024;BME280;64719;52.124;6.226;2023-03-30T07:37:02;100590.91;;;12.99;85.86
76024;BME280;64719;52.124;6.226;2023-03-30T07:39:30;100599.28;;;13.36;83.91
76024;BME280;64719;52.124;6.226;2023-03-30T07:41:56;100602.88;;;13.68;82.80
76024;BME280;64719;52.124;6.226;2023-03-30T07:44:23;100609.88;;;13.59;82.19
76024;BME280;64719;52.124;6.226;2023-03-30T07:46:53;100608.44;;;13.51;81.98
76024;BME280;64719;52.124;6.226;2023-03-30T07:49:20;100612.25;;;14.82;78.27
76024;BME280;64719;52.124;6.226;2023-03-30T07:51:48;100606.84;;;14.45;77.44
76024;BME280;64719;52.124;6.226;2023-03-30T07:54:15;100607.28;;;14.27;79.44
76024;BME280;64719;52.124;6.226;2023-03-30T07:56:41;100613.44;;;14.49;77.73
76024;BME280;64719;52.124;6.226;2023-03-30T07:59:09;100610.06;;;14.37;78.07
76024;BME280;64719;52.124;6.226;2023-03-30T08:01:36;100605.13;;;14.02;79.48
76024;BME280;64719;52.124;6.226;2023-03-30T08:04:03;100610.22;;;13.94;79.43
76024;BME280;64719;52.124;6.226;2023-03-30T08:06:30;100600.69;;;13.96;79.44
76024;BME280;64719;52.124;6.226;2023-03-30T08:08:58;100605.25;;;14.17;79.32
76024;BME280;64719;52.124;6.226;2023-03-30T08:11:25;100617.47;;;14.10;79.35
76024;BME280;64719;52.124;6.226;2023-03-30T08:13:52;100598.88;;;14.07;78.36
76024;BME280;64719;52.124;6.226;2023-03-30T08:16:18;100610.44;;;14.19;77.27
76024;BME280;64719;52.124;6.226;2023-03-30T08:18:45;100618.75;;;13.76;77.77
76024;BME280;64719;52.124;6.226;2023-03-30T08:21:12;100616.63;;;13.51;78.90
76024;BME280;64719;52.124;6.226;2023-03-30T08:23:39;100626.25;;;13.59;79.29
76024;BME280;64719;52.124;6.226;2023-03-30T08:26:06;100633.75;;;13.47;80.03
76024;BME280;64719;52.124;6.226;2023-03-30T08:28:33;100614.66;;;13.47;79.23
76024;BME280;64719;52.124;6.226;2023-03-30T08:31:04;100630.44;;;13.45;78.93
76024;BME280;64719;52.124;6.226;2023-03-30T08:33:31;100632.34;;;13.44;78.98
76024;BME280;64719;52.124;6.226;2023-03-30T08:35:57;100636.72;;;13.72;78.88
76024;BME280;64719;52.124;6.226;2023-03-30T08:38:24;100635.66;;;13.99;77.05
76024;BME280;64719;52.124;6.226;2023-03-30T08:40:51;100635.28;;;13.91;76.85
76024;BME280;64719;52.124;6.226;2023-03-30T08:43:42;100634.00;;;14.25;76.14
76024;BME280;64719;52.124;6.226;2023-03-30T08:46:14;100634.16;;;14.45;75.39
76024;BME280;64719;52.124;6.226;2023-03-30T08:48:42;100635.75;;;14.41;74.25
76024;BME280;64719;52.124;6.226;2023-03-30T08:51:17;100646.28;;;15.72;70.26
76024;BME280;64719;52.124;6.226;2023-03-30T08:53:47;100631.91;;;14.79;70.42
76024;BME280;64719;52.124;6.226;2023-03-30T08:56:19;100641.38;;;14.61;70.30
76024;BME280;64719;52.124;6.226;2023-03-30T08:58:54;100631.50;;;15.78;68.38
76024;BME280;64719;52.124;6.226;2023-03-30T09:01:27;100638.31;;;15.71;66.17
76024;BME280;64719;52.124;6.226;2023-03-30T09:04:01;100642.22;;;15.18;68.78
76024;BME280;64719;52.124;6.226;2023-03-30T09:06:42;100636.31;;;14.85;68.96
76024;BME280;64719;52.124;6.226;2023-03-30T09:09:12;100633.53;;;14.33;70.54
76024;BME280;64719;52.124;6.226;2023-03-30T09:11:41;100643.72;;;13.89;73.07
76024;BME280;64719;52.124;6.226;2023-03-30T09:14:14;100648.19;;;14.00;74.07
76024;BME280;64719;52.124;6.226;2023-03-30T09:16:50;100647.81;;;14.50;72.81
76024;BME280;64719;52.124;6.226;2023-03-30T09:19:21;100646.53;;;15.04;71.30
76024;BME280;64719;52.124;6.226;2023-03-30T09:21:51;100647.88;;;15.02;70.36
76024;BME280;64719;52.124;6.226;2023-03-30T09:24:23;100662.72;;;14.69;70.76
76024;BME280;64719;52.124;6.226;2023-03-30T09:26:53;100658.78;;;14.55;71.70
76024;BME280;64719;52.124;6.226;2023-03-30T09:29:28;100661.16;;;14.78;71.09
76024;BME280;64719;52.124;6.226;2023-03-30T09:32:02;100663.00;;;14.73;71.41
76024;BME280;64719;52.124;6.226;2023-03-30T09:34:34;100657.88;;;14.81;71.54
76024;BME280;64719;52.124;6.226;2023-03-30T09:37:07;100666.69;;;14.51;72.23
76024;BME280;64719;52.124;6.226;2023-03-30T09:39:35;100672.13;;;14.51;71.59
76024;BME280;64719;52.124;6.226;2023-03-30T09:42:12;100692.69;;;14.59;70.05
76024;BME280;64719;52.124;6.226;2023-03-30T09:44:46;100680.84;;;14.43;70.75
76024;BME280;64719;52.124;6.226;2023-03-30T09:47:21;100691.31;;;14.25;72.56
76024;BME280;64719;52.124;6.226;2023-03-30T09:49:55;100686.66;;;13.99;73.68
76024;BME280;64719;52.124;6.226;2023-03-30T09:52:23;100692.97;;;14.04;74.25
76024;BME280;64719;52.124;6.226;2023-03-30T09:54:51;100690.25;;;14.62;73.43
76024;BME280;64719;52.124;6.226;2023-03-30T09:57:26;100704.25;;;15.13;70.69
76024;BME280;64719;52.124;6.226;2023-03-30T09:59:55;100696.09;;;15.79;66.35
76024;BME280;64719;52.124;6.226;2023-03-30T10:02:24;100683.00;;;21.32;54.07
76024;BME280;64719;52.124;6.226;2023-03-30T10:05:00;100677.22;;;17.18;60.38
76024;BME280;64719;52.124;6.226;2023-03-30T10:07:30;100683.84;;;16.22;63.78
76024;BME280;64719;52.124;6.226;2023-03-30T10:09:58;100679.53;;;15.39;66.18
76024;BME280;64719;52.124;6.226;2023-03-30T10:12:27;100690.97;;;15.36;67.27
76024;BME280;64719;52.124;6.226;2023-03-30T10:14:59;100690.16;;;16.22;63.68
76024;BME280;64719;52.124;6.226;2023-03-30T10:17:26;100688.25;;;16.38;63.10
76024;BME280;64719;52.124;6.226;2023-03-30T10:20:20;100697.28;;;17.77;61.24
76024;BME280;64719;52.124;6.226;2023-03-30T10:22:49;100693.22;;;18.86;56.38
76024;BME280;64719;52.124;6.226;2023-03-30T10:25:19;100687.19;;;21.16;49.98
76024;BME280;64719;52.124;6.226;2023-03-30T10:27:48;100690.25;;;21.55;46.47
76024;BME280;64719;52.124;6.226;2023-03-30T10:30:21;100700.78;;;23.57;42.10
76024;BME280;64719;52.124;6.226;2023-03-30T10:32:49;100676.63;;;19.66;48.13
76024;BME280;64719;52.124;6.226;2023-03-30T10:35:18;100695.81;;;17.36;55.20
76024;BME280;64719;52.124;6.226;2023-03-30T10:37:48;100695.63;;;16.22;58.93
76024;BME280;64719;52.124;6.226;2023-03-30T10:40:18;100702.97;;;15.97;61.12
76024;BME280;64719;52.124;6.226;2023-03-30T10:42:49;100709.25;;;15.92;61.44
76024;BME280;64719;52.124;6.226;2023-03-30T10:45:26;100711.88;;;15.57;62.38
76024;BME280;64719;52.124;6.226;2023-03-30T10:48:01;100711.28;;;15.45;64.05
76024;BME280;64719;52.124;6.226;2023-03-30T10:50:34;100720.69;;;15.64;63.21
76024;BME280;64719;52.124;6.226;2023-03-30T10:53:08;100723.97;;;15.71;62.00
76024;BME280;64719;52.124;6.226;2023-03-30T10:55:45;100711.47;;;16.05;60.68
76024;BME280;64719;52.124;6.226;2023-03-30T10:58:23;100712.03;;;17.96;54.83
76024;BME280;64719;52.124;6.226;2023-03-30T11:01:05;100711.31;;;19.67;49.96
76024;BME280;64719;52.124;6.226;2023-03-30T11:03:36;100715.38;;;20.81;45.32
76024;BME280;64719;52.124;6.226;2023-03-30T11:06:08;100715.59;;;18.41;50.87
76024;BME280;64719;52.124;6.226;2023-03-30T11:08:40;100713.47;;;16.65;55.30
76024;BME280;64719;52.124;6.226;2023-03-30T11:11:12;100712.63;;;17.00;56.29
76024;BME280;64719;52.124;6.226;2023-03-30T11:13:46;100712.38;;;16.81;56.45
76024;BME280;64719;52.124;6.226;2023-03-30T11:16:19;100715.63;;;16.33;57.57
76024;BME280;64719;52.124;6.226;2023-03-30T11:18:51;100715.78;;;15.76;59.41
76024;BME280;64719;52.124;6.226;2023-03-30T11:21:24;100716.34;;;15.83;59.75
76024;BME280;64719;52.124;6.226;2023-03-30T11:23:54;100721.31;;;15.96;58.87
76024;BME280;64719;52.124;6.226;2023-03-30T11:26:21;100723.22;;;16.01;59.25
76024;BME280;64719;52.124;6.226;2023-03-30T11:28:56;100725.75;;;16.32;57.80
76024;BME280;64719;52.124;6.226;2023-03-30T11:34:18;100719.41;;;15.97;59.12
76024;BME280;64719;52.124;6.226;2023-03-30T11:36:54;100725.34;;;15.69;60.29
76024;BME280;64719;52.124;6.226;2023-03-30T11:39:28;100719.72;;;16.25;59.89
76024;BME280;64719;52.124;6.226;2023-03-30T11:41:58;100726.78;;;17.37;56.50
76024;BME280;64719;52.124;6.226;2023-03-30T11:44:27;100733.75;;;16.94;57.71
76024;BME280;64719;52.124;6.226;2023-03-30T11:46:59;100730.59;;;18.09;53.57
76024;BME280;64719;52.124;6.226;2023-03-30T11:49:38;100729.56;;;19.82;48.98
76024;BME280;64719;52.124;6.226;2023-03-30T11:52:15;100721.50;;;17.65;54.21
76024;BME280;64719;52.124;6.226;2023-03-30T11:54:59;100721.28;;;17.42;55.75
76024;BME280;64719;52.124;6.226;2023-03-30T11:57:34;100723.66;;;18.22;54.03
76024;BME280;64719;52.124;6.226;2023-03-30T12:00:16;100717.81;;;17.85;53.82
76024;BME280;64719;52.124;6.226;2023-03-30T12:02:50;100713.69;;;18.98;52.51
76024;BME280;64719;52.124;6.226;2023-03-30T12:05:25;100719.28;;;17.67;53.43
76024;BME280;64719;52.124;6.226;2023-03-30T12:08:02;100714.00;;;16.42;57.26
76024;BME280;64719;52.124;6.226;2023-03-30T12:10:36;100715.03;;;16.01;58.76
76024;BME280;64719;52.124;6.226;2023-03-30T12:13:04;100721.88;;;15.98;59.64
76024;BME280;64719;52.124;6.226;2023-03-30T12:15:37;100714.78;;;16.32;58.07
76024;BME280;64719;52.124;6.226;2023-03-30T12:18:17;100715.84;;;16.01;58.49
76024;BME280;64719;52.124;6.226;2023-03-30T12:20:52;100718.63;;;16.31;58.38
76024;BME280;64719;52.124;6.226;2023-03-30T12:23:28;100721.91;;;16.18;57.62
76024;BME280;64719;52.124;6.226;2023-03-30T12:26:20;100715.38;;;16.44;56.94
76024;BME280;64719;52.124;6.226;2023-03-30T12:28:55;100720.28;;;17.03;55.56
76024;BME280;64719;52.124;6.226;2023-03-30T12:31:23;100720.53;;;18.00;53.70
76024;BME280;64719;52.124;6.226;2023-03-30T12:34:10;100715.13;;;16.86;54.92
76024;BME280;64719;52.124;6.226;2023-03-30T12:36:38;100737.25;;;16.34;57.25
76024;BME280;64719;52.124;6.226;2023-03-30T12:39:11;100731.25;;;16.37;57.00
76024;BME280;64719;52.124;6.226;2023-03-30T12:41:42;100705.53;;;16.79;55.42
76024;BME280;64719;52.124;6.226;2023-03-30T12:44:38;100695.09;;;17.79;53.45
76024;BME280;64719;52.124;6.226;2023-03-30T12:47:23;100718.47;;;19.45;48.95
76024;BME280;64719;52.124;6.226;2023-03-30T12:50:26;100702.88;;;19.59;49.79
76024;BME280;64719;52.124;6.226;2023-03-30T12:53:06;100707.13;;;19.28;49.59
76024;BME280;64719;52.124;6.226;2023-03-30T12:55:44;100721.00;;;19.83;48.58
76024;BME280;64719;52.124;6.226;2023-03-30T13:01:13;100711.28;;;19.20;50.17
76024;BME280;64719;52.124;6.226;2023-03-30T13:03:46;100718.09;;;18.71;52.39
76024;BME280;64719;52.124;6.226;2023-03-30T13:06:22;100706.69;;;18.15;54.08
76024;BME280;64719;52.124;6.226;2023-03-30T13:08:53;100700.28;;;17.07;55.02
76024;BME280;64719;52.124;6.226;2023-03-30T13:11:21;100701.41;;;16.46;56.71
76024;BME280;64719;52.124;6.226;2023-03-30T13:13:51;100711.47;;;18.38;51.61
76024;BME280;64719;52.124;6.226;2023-03-30T13:19:42;100700.03;;;18.65;48.79
76024;BME280;64719;52.124;6.226;2023-03-30T13:22:28;100703.84;;;16.98;53.89
76024;BME280;64719;52.124;6.226;2023-03-30T13:24:59;100712.63;;;16.95;55.06